sensor_id;sensor_type;location;lat;lon;timestamp;pressure;altitude;pressure_sealevel;temperature;humidity
64064;BME280;50314;50.618;10.642;2023-01-30T00:01:16;96901.53;;;18.33;18.77
64064;BME280;50314;50.618;10.642;2023-01-30T00:03:42;96900.72;;;18.32;18.76
64064;BME280;50314;50.618;10.642;2023-01-30T00:06:08;96896.84;;;18.26;18.96
64064;BME280;50314;50.618;10.642;2023-01-30T00:08:34;96889.84;;;18.25;18.88
64064;BME280;50314;50.618;10.642;2023-01-30T00:11:07;96881.63;;;18.19;18.55
64064;BME280;50314;50.618;10.642;2023-01-30T00:13:33;96885.97;;;18.20;18.66
64064;BME280;50314;50.618;10.642;2023-01-30T00:15:59;96879.28;;;18.16;18.98
64064;BME280;50314;50.618;10.642;2023-01-30T00:18:25;96882.25;;;18.13;18.68
64064;BME280;50314;50.618;10.642;2023-01-30T00:20:58;96884.53;;;18.07;18.73
64064;BME280;50314;50.618;10.642;2023-01-30T00:23:25;96874.00;;;18.06;18.89
64064;BME280;50314;50.618;10.642;2023-01-30T00:25:50;96866.13;;;17.96;18.72
64064;BME280;50314;50.618;10.642;2023-01-30T00:28:16;96858.66;;;18.00;18.72
64064;BME280;50314;50.618;10.642;2023-01-30T00:30:41;96860.78;;;17.96;18.95
64064;BME280;50314;50.618;10.642;2023-01-30T00:33:08;96858.28;;;17.95;18.87
64064;BME280;50314;50.618;10.642;2023-01-30T00:35:33;96854.09;;;17.92;18.74
64064;BME280;50314;50.618;10.642;2023-01-30T00:37:59;96840.25;;;17.89;19.05
64064;BME280;50314;50.618;10.642;2023-01-30T00:40:26;96833.41;;;17.86;19.04
64064;BME280;50314;50.618;10.642;2023-01-30T00:42:52;96817.72;;;17.83;18.80
64064;BME280;50314;50.618;10.642;2023-01-30T00:45:38;96811.88;;;17.79;18.94
64064;BME280;50314;50.618;10.642;2023-01-30T00:48:23;96800.88;;;17.74;19.00
64064;BME280;50314;50.618;10.642;2023-01-30T00:50:48;96800.19;;;17.72;19.03
64064;BME280;50314;50.618;10.642;2023-01-30T00:53:15;96795.16;;;17.69;18.88
64064;BME280;50314;50.618;10.642;2023-01-30T00:55:41;96790.84;;;17.68;19.12
64064;BME280;50314;50.618;10.642;2023-01-30T00:58:08;96801.66;;;17.67;18.90
64064;BME280;50314;50.618;10.642;2023-01-30T01:00:33;96798.47;;;17.63;18.90
64064;BME280;50314;50.618;10.642;2023-01-30T01:02:59;96808.44;;;17.61;18.91
64064;BME280;50314;50.618;10.642;2023-01-30T01:05:27;96793.44;;;17.60;19.08
64064;BME280;50314;50.618;10.642;2023-01-30T01:07:54;96788.44;;;17.57;18.98
64064;BME280;50314;50.618;10.642;2023-01-30T01:10:20;96797.72;;;17.53;18.99
64064;BME280;50314;50.618;10.642;2023-01-30T01:12:45;96769.41;;;17.52;19.12
64064;BME280;50314;50.618;10.642;2023-01-30T01:15:13;96754.56;;;17.49;19.16
64064;BME280;50314;50.618;10.642;2023-01-30T01:17:39;96748.41;;;17.49;19.14
64064;BME280;50314;50.618;10.642;2023-01-30T01:20:05;96744.97;;;17.38;19.21
64064;BME280;50314;50.618;10.642;2023-01-30T01:22:33;96740.03;;;17.44;19.01
64064;BME280;50314;50.618;10.642;2023-01-30T01:24:59;96733.06;;;17.43;19.09
64064;BME280;50314;50.618;10.642;2023-01-30T01:27:25;96723.38;;;17.42;19.01
64064;BME280;50314;50.618;10.642;2023-01-30T01:29:50;96728.03;;;17.40;18.96
64064;BME280;50314;50.618;10.642;2023-01-30T01:32:15;96739.00;;;17.36;18.96
64064;BME280;50314;50.618;10.642;2023-01-30T01:34:41;96741.66;;;17.36;19.11
64064;BME280;50314;50.618;10.642;2023-01-30T01:37:06;96723.34;;;17.33;18.98
64064;BME280;50314;50.618;10.642;2023-01-30T01:39:32;96726.97;;;17.32;19.22
64064;BME280;50314;50.618;10.642;2023-01-30T01:42:16;96726.59;;;17.27;19.39
64064;BME280;50314;50.618;10.642;2023-01-30T01:48:07;96721.69;;;17.14;19.33
64064;BME280;50314;50.618;10.642;2023-01-30T01:50:44;96736.13;;;17.12;19.24
64064;BME280;50314;50.618;10.642;2023-01-30T01:53:14;96734.97;;;17.14;19.09
64064;BME280;50314;50.618;10.642;2023-01-30T01:55:42;96740.47;;;17.13;19.29
64064;BME280;50314;50.618;10.642;2023-01-30T01:58:19;96748.22;;;17.06;18.66
64064;BME280;50314;50.618;10.642;2023-01-30T02:00:47;96746.25;;;17.08;19.42
64064;BME280;50314;50.618;10.642;2023-01-30T02:03:17;96750.91;;;17.06;19.20
64064;BME280;50314;50.618;10.642;2023-01-30T02:05:46;96753.69;;;17.05;19.38
64064;BME280;50314;50.618;10.642;2023-01-30T02:08:40;96757.28;;;16.96;19.35
64064;BME280;50314;50.618;10.642;2023-01-30T02:11:12;96747.31;;;16.98;19.24
64064;BME280;50314;50.618;10.642;2023-01-30T02:13:39;96737.66;;;16.97;19.25
64064;BME280;50314;50.618;10.642;2023-01-30T02:16:06;96728.16;;;16.94;19.39
64064;BME280;50314;50.618;10.642;2023-01-30T02:18:32;96723.75;;;16.85;19.42
64064;BME280;50314;50.618;10.642;2023-01-30T02:32:05;96689.63;;;16.80;19.37
64064;BME280;50314;50.618;10.642;2023-01-30T02:34:38;96683.50;;;16.80;19.30
64064;BME280;50314;50.618;10.642;2023-01-30T02:40:14;96689.69;;;16.71;19.45
64064;BME280;50314;50.618;10.642;2023-01-30T02:45:41;96675.84;;;16.67;19.48
64064;BME280;50314;50.618;10.642;2023-01-30T02:48:20;96665.38;;;16.65;19.55
64064;BME280;50314;50.618;10.642;2023-01-30T02:50:58;96649.72;;;16.62;19.59
64064;BME280;50314;50.618;10.642;2023-01-30T02:53:26;96648.59;;;16.65;19.60
64064;BME280;50314;50.618;10.642;2023-01-30T02:55:54;96646.91;;;16.64;19.51
64064;BME280;50314;50.618;10.642;2023-01-30T02:58:20;96646.06;;;16.63;19.57
64064;BME280;50314;50.618;10.642;2023-01-30T03:01:54;96638.25;;;16.62;19.61
64064;BME280;50314;50.618;10.642;2023-01-30T03:03:59;96632.41;;;16.58;19.58
64064;BME280;50314;50.618;10.642;2023-01-30T03:09:43;96624.22;;;16.52;19.47
64064;BME280;50314;50.618;10.642;2023-01-30T03:14:51;96634.84;;;16.52;19.72
64064;BME280;50314;50.618;10.642;2023-01-30T03:17:21;96625.19;;;16.51;19.46
64064;BME280;50314;50.618;10.642;2023-01-30T03:19:49;96615.38;;;16.51;19.52
64064;BME280;50314;50.618;10.642;2023-01-30T03:22:17;96603.09;;;16.50;19.53
64064;BME280;50314;50.618;10.642;2023-01-30T03:24:44;96593.44;;;16.49;19.52
64064;BME280;50314;50.618;10.642;2023-01-30T03:27:11;96593.44;;;16.49;19.64
64064;BME280;50314;50.618;10.642;2023-01-30T03:29:36;96601.34;;;16.41;19.70
64064;BME280;50314;50.618;10.642;2023-01-30T03:32:03;96603.56;;;16.46;19.40
64064;BME280;50314;50.618;10.642;2023-01-30T03:34:28;96591.22;;;16.44;19.71
64064;BME280;50314;50.618;10.642;2023-01-30T03:36:54;96588.56;;;16.44;19.61
64064;BME280;50314;50.618;10.642;2023-01-30T03:39:22;96583.41;;;16.43;19.64
64064;BME280;50314;50.618;10.642;2023-01-30T03:41:48;96577.09;;;16.44;19.73
64064;BME280;50314;50.618;10.642;2023-01-30T03:44:13;96578.28;;;16.41;19.75
64064;BME280;50314;50.618;10.642;2023-01-30T03:46:39;96572.97;;;16.41;19.66
64064;BME280;50314;50.618;10.642;2023-01-30T03:49:04;96576.59;;;16.40;19.66
64064;BME280;50314;50.618;10.642;2023-01-30T03:51:30;96581.25;;;16.38;19.75
64064;BME280;50314;50.618;10.642;2023-01-30T03:53:55;96581.38;;;16.37;19.67
64064;BME280;50314;50.618;10.642;2023-01-30T03:56:20;96569.91;;;16.36;19.78
64064;BME280;50314;50.618;10.642;2023-01-30T03:58:46;96569.91;;;16.36;19.68
64064;BME280;50314;50.618;10.642;2023-01-30T04:01:11;96555.94;;;16.34;19.79
64064;BME280;50314;50.618;10.642;2023-01-30T04:03:37;96563.91;;;16.34;19.79
64064;BME280;50314;50.618;10.642;2023-01-30T04:06:02;96560.72;;;16.31;19.76
64064;BME280;50314;50.618;10.642;2023-01-30T04:08:27;96557.41;;;16.29;19.91
64064;BME280;50314;50.618;10.642;2023-01-30T04:10:53;96556.56;;;16.28;19.70
64064;BME280;50314;50.618;10.642;2023-01-30T04:13:18;96554.88;;;16.27;19.65
64064;BME280;50314;50.618;10.642;2023-01-30T04:15:44;96536.25;;;16.27;19.86
64064;BME280;50314;50.618;10.642;2023-01-30T04:18:09;96535.44;;;16.27;19.82
64064;BME280;50314;50.618;10.642;2023-01-30T04:20:35;96529.28;;;16.26;19.86
64064;BME280;50314;50.618;10.642;2023-01-30T04:23:00;96543.56;;;16.25;19.91
64064;BME280;50314;50.618;10.642;2023-01-30T04:25:27;96538.25;;;16.25;19.77
64064;BME280;50314;50.618;10.642;2023-01-30T04:27:53;96540.22;;;16.23;19.84
64064;BME280;50314;50.618;10.642;2023-01-30T04:30:18;96531.56;;;16.21;20.01
64064;BME280;50314;50.618;10.642;2023-01-30T04:32:43;96520.94;;;16.21;19.96
64064;BME280;50314;50.618;10.642;2023-01-30T04:35:09;96524.59;;;16.20;19.92
64064;BME280;50314;50.618;10.642;2023-01-30T04:37:35;96521.09;;;16.19;19.85
64064;BME280;50314;50.618;10.642;2023-01-30T04:40:00;96512.31;;;16.19;19.88
64064;BME280;50314;50.618;10.642;2023-01-30T04:42:26;96501.81;;;16.17;19.76
64064;BME280;50314;50.618;10.642;2023-01-30T04:44:51;96505.47;;;16.16;19.75
64064;BME280;50314;50.618;10.642;2023-01-30T04:47:17;96498.50;;;16.15;19.93
64064;BME280;50314;50.618;10.642;2023-01-30T04:49:42;96495.00;;;16.15;19.86
64064;BME280;50314;50.618;10.642;2023-01-30T04:52:08;96495.13;;;16.13;19.99
64064;BME280;50314;50.618;10.642;2023-01-30T04:54:33;96495.13;;;16.13;19.96
64064;BME280;50314;50.618;10.642;2023-01-30T04:56:59;96485.34;;;16.14;19.79
64064;BME280;50314;50.618;10.642;2023-01-30T04:59:24;96473.22;;;16.11;19.96
64064;BME280;50314;50.618;10.642;2023-01-30T05:01:50;96469.66;;;16.11;19.87
64064;BME280;50314;50.618;10.642;2023-01-30T05:04:15;96479.47;;;16.10;19.84
64064;BME280;50314;50.618;10.642;2023-01-30T05:06:41;96472.50;;;16.09;19.99
64064;BME280;50314;50.618;10.642;2023-01-30T05:09:06;96463.69;;;16.09;20.15
64064;BME280;50314;50.618;10.642;2023-01-30T05:11:32;96470.84;;;16.08;20.17
64064;BME280;50314;50.618;10.642;2023-01-30T05:13:58;96469.16;;;16.07;20.06
64064;BME280;50314;50.618;10.642;2023-01-30T05:16:24;96464.81;;;16.06;20.15
64064;BME280;50314;50.618;10.642;2023-01-30T05:18:49;96472.97;;;16.05;19.94
64064;BME280;50314;50.618;10.642;2023-01-30T05:21:24;96472.56;;;16.00;20.11
64064;BME280;50314;50.618;10.642;2023-01-30T05:23:51;96466.13;;;16.02;20.03
64064;BME280;50314;50.618;10.642;2023-01-30T05:26:20;96467.88;;;15.93;20.13
64064;BME280;50314;50.618;10.642;2023-01-30T05:28:56;96467.88;;;15.93;20.06
64064;BME280;50314;50.618;10.642;2023-01-30T05:31:22;96485.19;;;15.97;20.09
64064;BME280;50314;50.618;10.642;2023-01-30T05:33:48;96480.00;;;15.96;20.09
64064;BME280;50314;50.618;10.642;2023-01-30T05:36:16;96485.50;;;15.94;20.25
64064;BME280;50314;50.618;10.642;2023-01-30T05:38:43;96476.66;;;15.94;20.25
64064;BME280;50314;50.618;10.642;2023-01-30T05:41:09;96465.06;;;15.95;20.13
64064;BME280;50314;50.618;10.642;2023-01-30T05:43:35;96460.59;;;15.95;20.31
64064;BME280;50314;50.618;10.642;2023-01-30T05:46:02;96450.09;;;15.94;20.11
64064;BME280;50314;50.618;10.642;2023-01-30T05:48:28;96425.38;;;15.93;20.27
64064;BME280;50314;50.618;10.642;2023-01-30T05:50:56;96432.38;;;15.94;20.24
64064;BME280;50314;50.618;10.642;2023-01-30T05:53:23;96435.16;;;15.93;20.09
64064;BME280;50314;50.618;10.642;2023-01-30T05:55:56;96445.25;;;15.89;20.07
64064;BME280;50314;50.618;10.642;2023-01-30T05:58:23;96430.03;;;15.91;20.05
64064;BME280;50314;50.618;10.642;2023-01-30T06:00:49;96432.50;;;15.93;20.21
64064;BME280;50314;50.618;10.642;2023-01-30T06:03:14;96431.84;;;15.91;20.09
64064;BME280;50314;50.618;10.642;2023-01-30T06:05:40;96424.84;;;15.90;20.14
64064;BME280;50314;50.618;10.642;2023-01-30T06:08:05;96424.03;;;15.89;20.26
64064;BME280;50314;50.618;10.642;2023-01-30T06:10:33;96412.56;;;15.89;20.17
64064;BME280;50314;50.618;10.642;2023-01-30T06:12:58;96415.38;;;15.87;20.13
64064;BME280;50314;50.618;10.642;2023-01-30T06:15:23;96409.38;;;15.85;20.31
64064;BME280;50314;50.618;10.642;2023-01-30T06:17:49;96411.88;;;15.87;20.20
64064;BME280;50314;50.618;10.642;2023-01-30T06:20:14;96419.00;;;15.86;20.32
64064;BME280;50314;50.618;10.642;2023-01-30T06:22:40;96415.69;;;15.84;20.32
64064;BME280;50314;50.618;10.642;2023-01-30T06:25:05;96414.00;;;15.83;20.06
64064;BME280;50314;50.618;10.642;2023-01-30T06:27:31;96418.66;;;15.81;20.23
64064;BME280;50314;50.618;10.642;2023-01-30T06:29:56;96414.31;;;15.80;20.30
64064;BME280;50314;50.618;10.642;2023-01-30T06:32:22;96423.97;;;15.81;20.39
64064;BME280;50314;50.618;10.642;2023-01-30T06:34:47;96422.28;;;15.80;20.48
64064;BME280;50314;50.618;10.642;2023-01-30T06:37:13;96423.28;;;15.79;20.33
64064;BME280;50314;50.618;10.642;2023-01-30T06:39:38;96421.59;;;15.78;20.38
64064;BME280;50314;50.618;10.642;2023-01-30T06:42:04;96421.59;;;15.78;20.40
64064;BME280;50314;50.618;10.642;2023-01-30T06:44:29;96417.25;;;15.77;20.39
64064;BME280;50314;50.618;10.642;2023-01-30T06:46:55;96433.34;;;15.76;20.34
64064;BME280;50314;50.618;10.642;2023-01-30T06:49:20;96437.84;;;15.75;20.30
64064;BME280;50314;50.618;10.642;2023-01-30T06:51:46;96446.81;;;15.74;20.50
64064;BME280;50314;50.618;10.642;2023-01-30T06:54:11;96448.75;;;15.72;20.47
64064;BME280;50314;50.618;10.642;2023-01-30T06:56:37;96450.59;;;15.71;20.56
64064;BME280;50314;50.618;10.642;2023-01-30T06:59:02;96448.94;;;15.70;20.39
64064;BME280;50314;50.618;10.642;2023-01-30T07:01:27;96441.25;;;15.67;20.50
64064;BME280;50314;50.618;10.642;2023-01-30T07:03:53;96424.47;;;15.67;20.38
64064;BME280;50314;50.618;10.642;2023-01-30T07:06:18;96427.13;;;15.67;20.41
64064;BME280;50314;50.618;10.642;2023-01-30T07:08:44;96429.78;;;15.67;20.50
64064;BME280;50314;50.618;10.642;2023-01-30T07:11:09;96419.16;;;15.67;20.55
64064;BME280;50314;50.618;10.642;2023-01-30T07:13:35;96427.13;;;15.67;20.57
64064;BME280;50314;50.618;10.642;2023-01-30T07:16:00;96419.16;;;15.67;20.53
64064;BME280;50314;50.618;10.642;2023-01-30T07:18:26;96413.03;;;15.66;20.66
64064;BME280;50314;50.618;10.642;2023-01-30T07:20:51;96419.50;;;15.64;20.43
64064;BME280;50314;50.618;10.642;2023-01-30T07:23:17;96428.59;;;15.61;20.46
64064;BME280;50314;50.618;10.642;2023-01-30T07:25:42;96426.75;;;15.62;20.35
64064;BME280;50314;50.618;10.642;2023-01-30T07:28:08;96422.16;;;15.64;20.70
64064;BME280;50314;50.618;10.642;2023-01-30T07:30:34;96420.47;;;15.63;20.34
64064;BME280;50314;50.618;10.642;2023-01-30T07:33:01;96415.16;;;15.63;20.47
64064;BME280;50314;50.618;10.642;2023-01-30T07:35:29;96421.47;;;15.62;20.50
64064;BME280;50314;50.618;10.642;2023-01-30T07:37:55;96423.41;;;15.60;20.49
64064;BME280;50314;50.618;10.642;2023-01-30T07:40:21;96418.41;;;15.57;20.78
64064;BME280;50314;50.618;10.642;2023-01-30T07:43:08;96416.22;;;15.52;20.73
64064;BME280;50314;50.618;10.642;2023-01-30T07:45:42;96404.47;;;15.55;20.32
64064;BME280;50314;50.618;10.642;2023-01-30T07:48:10;96402.47;;;15.57;20.78
64064;BME280;50314;50.618;10.642;2023-01-30T07:50:35;96405.00;;;15.58;20.57
64064;BME280;50314;50.618;10.642;2023-01-30T07:53:05;96398.03;;;15.57;20.53
64064;BME280;50314;50.618;10.642;2023-01-30T07:55:32;96401.50;;;15.58;20.63
64064;BME280;50314;50.618;10.642;2023-01-30T07:57:57;96386.56;;;15.57;20.62
64064;BME280;50314;50.618;10.642;2023-01-30T08:00:23;96384.91;;;15.56;20.49
64064;BME280;50314;50.618;10.642;2023-01-30T08:02:49;96376.81;;;15.57;20.68
64064;BME280;50314;50.618;10.642;2023-01-30T08:05:14;96387.41;;;15.57;20.72
64064;BME280;50314;50.618;10.642;2023-01-30T08:07:40;96368.97;;;15.56;20.52
64064;BME280;50314;50.618;10.642;2023-01-30T08:10:06;96373.28;;;15.57;20.70
64064;BME280;50314;50.618;10.642;2023-01-30T08:12:31;96353.03;;;15.56;20.79
64064;BME280;50314;50.618;10.642;2023-01-30T08:14:57;96348.56;;;15.56;20.63
64064;BME280;50314;50.618;10.642;2023-01-30T08:17:22;96351.22;;;15.56;20.62
64064;BME280;50314;50.618;10.642;2023-01-30T08:19:47;96368.16;;;15.55;20.61
64064;BME280;50314;50.618;10.642;2023-01-30T08:22:13;96353.34;;;15.53;20.73
64064;BME280;50314;50.618;10.642;2023-01-30T08:24:39;96341.06;;;15.52;20.72
64064;BME280;50314;50.618;10.642;2023-01-30T08:27:04;96344.41;;;15.54;21.02
64064;BME280;50314;50.618;10.642;2023-01-30T08:29:30;96349.72;;;15.54;21.04
64064;BME280;50314;50.618;10.642;2023-01-30T08:31:57;96349.72;;;15.54;21.05
64064;BME280;50314;50.618;10.642;2023-01-30T08:34:23;96351.38;;;15.55;20.72
64064;BME280;50314;50.618;10.642;2023-01-30T08:36:49;96350.56;;;15.54;20.80
64064;BME280;50314;50.618;10.642;2023-01-30T08:39:14;96349.72;;;15.54;20.91
64064;BME280;50314;50.618;10.642;2023-01-30T08:41:39;96358.66;;;15.53;21.08
64064;BME280;50314;50.618;10.642;2023-01-30T08:44:08;96356.81;;;15.53;20.82
64064;BME280;50314;50.618;10.642;2023-01-30T08:46:33;96355.03;;;15.54;20.97
64064;BME280;50314;50.618;10.642;2023-01-30T08:48:59;96350.69;;;15.53;20.97
64064;BME280;50314;50.618;10.642;2023-01-30T08:51:24;96350.69;;;15.53;20.83
64064;BME280;50314;50.618;10.642;2023-01-30T08:53:50;96347.22;;;15.52;20.91
64064;BME280;50314;50.618;10.642;2023-01-30T08:56:15;96333.13;;;15.52;21.00
64064;BME280;50314;50.618;10.642;2023-01-30T08:58:40;96340.25;;;15.51;20.81
64064;BME280;50314;50.618;10.642;2023-01-30T09:01:08;96328.78;;;15.50;21.15
64064;BME280;50314;50.618;10.642;2023-01-30T09:03:34;96334.09;;;15.50;20.83
64064;BME280;50314;50.618;10.642;2023-01-30T09:05:59;96323.50;;;15.50;21.23
64064;BME280;50314;50.618;10.642;2023-01-30T09:08:25;96328.78;;;15.50;20.99
64064;BME280;50314;50.618;10.642;2023-01-30T09:10:50;96330.59;;;15.50;20.91
64064;BME280;50314;50.618;10.642;2023-01-30T09:13:16;96348.34;;;15.49;20.91
64064;BME280;50314;50.618;10.642;2023-01-30T09:15:42;96340.25;;;15.51;21.06
64064;BME280;50314;50.618;10.642;2023-01-30T09:18:07;96332.41;;;15.49;21.05
64064;BME280;50314;50.618;10.642;2023-01-30T09:20:33;96336.06;;;15.48;21.17
64064;BME280;50314;50.618;10.642;2023-01-30T09:23:00;96330.75;;;15.48;21.13
64064;BME280;50314;50.618;10.642;2023-01-30T09:25:25;96331.59;;;15.49;21.13
64064;BME280;50314;50.618;10.642;2023-01-30T09:27:51;96337.91;;;15.48;21.12
64064;BME280;50314;50.618;10.642;2023-01-30T09:30:17;96341.38;;;15.48;20.91
64064;BME280;50314;50.618;10.642;2023-01-30T09:32:42;96338.72;;;15.48;21.23
64064;BME280;50314;50.618;10.642;2023-01-30T09:35:08;96343.03;;;15.49;20.95
64064;BME280;50314;50.618;10.642;2023-01-30T09:37:34;96331.59;;;15.49;21.05
64064;BME280;50314;50.618;10.642;2023-01-30T09:39:59;96335.25;;;15.48;21.09
64064;BME280;50314;50.618;10.642;2023-01-30T09:45:47;96335.69;;;15.43;21.16
64064;BME280;50314;50.618;10.642;2023-01-30T09:48:24;96331.06;;;15.45;21.06
64064;BME280;50314;50.618;10.642;2023-01-30T09:51:10;96333.03;;;15.43;21.54
64064;BME280;50314;50.618;10.642;2023-01-30T09:56:10;96326.28;;;15.49;21.41
64064;BME280;50314;50.618;10.642;2023-01-30T09:58:43;96321.97;;;15.48;21.20
64064;BME280;50314;50.618;10.642;2023-01-30T10:01:22;96313.19;;;15.47;21.41
64064;BME280;50314;50.618;10.642;2023-01-30T10:04:05;96312.34;;;15.47;21.26
64064;BME280;50314;50.618;10.642;2023-01-30T10:06:41;96307.88;;;15.47;21.26
64064;BME280;50314;50.618;10.642;2023-01-30T10:12:09;96309.53;;;15.48;21.36
64064;BME280;50314;50.618;10.642;2023-01-30T10:17:53;96315.00;;;15.47;21.48
64064;BME280;50314;50.618;10.642;2023-01-30T10:20:38;96295.78;;;15.53;21.58
64064;BME280;50314;50.618;10.642;2023-01-30T10:23:48;96290.78;;;15.50;21.44
64064;BME280;50314;50.618;10.642;2023-01-30T10:26:19;96299.28;;;15.54;21.62
64064;BME280;50314;50.618;10.642;2023-01-30T10:29:09;96287.81;;;15.53;21.52
64064;BME280;50314;50.618;10.642;2023-01-30T10:32:12;96292.16;;;15.54;21.74
64064;BME280;50314;50.618;10.642;2023-01-30T10:34:50;96289.50;;;15.54;21.52
64064;BME280;50314;50.618;10.642;2023-01-30T10:37:28;96293.66;;;15.57;21.62
64064;BME280;50314;50.618;10.642;2023-01-30T10:42:43;96279.78;;;15.63;21.63
64064;BME280;50314;50.618;10.642;2023-01-30T10:45:13;96273.84;;;15.69;21.53
64064;BME280;50314;50.618;10.642;2023-01-30T10:50:18;96298.13;;;15.74;21.58
64064;BME280;50314;50.618;10.642;2023-01-30T10:52:58;96304.56;;;15.71;21.44
64064;BME280;50314;50.618;10.642;2023-01-30T10:55:46;96309.41;;;15.76;21.36
64064;BME280;50314;50.618;10.642;2023-01-30T11:02:01;96298.25;;;15.72;21.46
64064;BME280;50314;50.618;10.642;2023-01-30T11:04:50;96296.44;;;15.73;21.67
64064;BME280;50314;50.618;10.642;2023-01-30T11:07:20;96309.09;;;15.79;21.62
64064;BME280;50314;50.618;10.642;2023-01-30T11:09:47;96300.13;;;15.80;21.45
64064;BME280;50314;50.618;10.642;2023-01-30T11:12:13;96295.50;;;15.82;21.32
64064;BME280;50314;50.618;10.642;2023-01-30T11:14:53;96297.47;;;15.80;21.67
64064;BME280;50314;50.618;10.642;2023-01-30T11:17:20;96291.84;;;15.83;21.35
64064;BME280;50314;50.618;10.642;2023-01-30T11:19:54;96301.81;;;15.81;21.71
64064;BME280;50314;50.618;10.642;2023-01-30T11:22:23;96290.72;;;15.86;21.59
64064;BME280;50314;50.618;10.642;2023-01-30T11:24:59;96286.53;;;15.83;21.70
64064;BME280;50314;50.618;10.642;2023-01-30T11:27:30;96285.25;;;15.87;21.65
64064;BME280;50314;50.618;10.642;2023-01-30T11:30:03;96273.94;;;15.85;21.43
64064;BME280;50314;50.618;10.642;2023-01-30T11:32:29;96276.44;;;15.87;21.38
64064;BME280;50314;50.618;10.642;2023-01-30T11:37:39;96280.91;;;15.86;21.63
64064;BME280;50314;50.618;10.642;2023-01-30T11:42:47;96267.28;;;15.81;21.77
64064;BME280;50314;50.618;10.642;2023-01-30T11:45:14;96275.91;;;15.83;21.32
64064;BME280;50314;50.618;10.642;2023-01-30T11:47:51;96286.50;;;15.75;21.38
64064;BME280;50314;50.618;10.642;2023-01-30T11:50:18;96284.19;;;15.80;21.67
64064;BME280;50314;50.618;10.642;2023-01-30T11:52:45;96284.19;;;15.80;21.52
64064;BME280;50314;50.618;10.642;2023-01-30T11:55:16;96262.94;;;15.80;21.63
64064;BME280;50314;50.618;10.642;2023-01-30T11:57:55;96267.59;;;15.78;21.44
64064;BME280;50314;50.618;10.642;2023-01-30T12:00:45;96277.91;;;15.81;21.42
64064;BME280;50314;50.618;10.642;2023-01-30T12:03:15;96256.69;;;15.81;21.52
64064;BME280;50314;50.618;10.642;2023-01-30T12:05:44;96268.94;;;15.82;21.55
64064;BME280;50314;50.618;10.642;2023-01-30T12:10:47;96256.38;;;15.84;21.50
64064;BME280;50314;50.618;10.642;2023-01-30T12:13:22;96259.03;;;15.84;21.25
64064;BME280;50314;50.618;10.642;2023-01-30T12:15:56;96266.69;;;15.87;21.50
64064;BME280;50314;50.618;10.642;2023-01-30T12:18:35;96253.41;;;15.87;21.43
64064;BME280;50314;50.618;10.642;2023-01-30T12:21:37;96251.06;;;15.84;21.34
64064;BME280;50314;50.618;10.642;2023-01-30T12:24:37;96240.94;;;15.88;21.40
64064;BME280;50314;50.618;10.642;2023-01-30T12:29:56;96253.91;;;15.91;21.55
64064;BME280;50314;50.618;10.642;2023-01-30T12:32:26;96251.59;;;15.96;21.39
64064;BME280;50314;50.618;10.642;2023-01-30T12:34:52;96245.97;;;15.99;21.33
64064;BME280;50314;50.618;10.642;2023-01-30T12:37:24;96262.44;;;16.03;21.27
64064;BME280;50314;50.618;10.642;2023-01-30T12:40:21;96250.47;;;15.98;21.22
64064;BME280;50314;50.618;10.642;2023-01-30T12:46:15;96242.19;;;16.02;21.52
64064;BME280;50314;50.618;10.642;2023-01-30T12:49:07;96234.88;;;16.04;21.78
64064;BME280;50314;50.618;10.642;2023-01-30T12:54:46;96241.22;;;16.11;22.05
64064;BME280;50314;50.618;10.642;2023-01-30T13:05:41;96254.25;;;16.22;22.04
64064;BME280;50314;50.618;10.642;2023-01-30T13:16:45;96254.91;;;16.24;22.23
64064;BME280;50314;50.618;10.642;2023-01-30T13:21:55;96245.16;;;16.25;22.29
64064;BME280;50314;50.618;10.642;2023-01-30T13:27:14;96255.78;;;16.25;22.12
64064;BME280;50314;50.618;10.642;2023-01-30T13:29:40;96259.91;;;16.27;22.27
64064;BME280;50314;50.618;10.642;2023-01-30T13:32:17;96254.91;;;16.24;22.29
64064;BME280;50314;50.618;10.642;2023-01-30T13:34:46;96260.91;;;16.26;22.10
64064;BME280;50314;50.618;10.642;2023-01-30T13:37:17;96255.78;;;16.25;22.18
64064;BME280;50314;50.618;10.642;2023-01-30T13:39:56;96254.25;;;16.22;22.33
64064;BME280;50314;50.618;10.642;2023-01-30T13:44:52;96256.59;;;16.25;22.16
64064;BME280;50314;50.618;10.642;2023-01-30T13:47:47;96248.25;;;16.20;22.33
64064;BME280;50314;50.618;10.642;2023-01-30T13:53:28;96252.06;;;16.17;22.54
64064;BME280;50314;50.618;10.642;2023-01-30T13:56:20;96251.41;;;16.15;22.47
64064;BME280;50314;50.618;10.642;2023-01-30T14:09:40;96266.50;;;16.15;22.54
64064;BME280;50314;50.618;10.642;2023-01-30T14:12:16;96258.69;;;16.13;22.45
64064;BME280;50314;50.618;10.642;2023-01-30T14:14:56;96273.66;;;16.14;22.43
64064;BME280;50314;50.618;10.642;2023-01-30T14:17:23;96285.63;;;16.18;22.46
64064;BME280;50314;50.618;10.642;2023-01-30T14:20:10;96293.09;;;16.15;22.40
64064;BME280;50314;50.618;10.642;2023-01-30T14:25:48;96303.03;;;16.13;22.46
64064;BME280;50314;50.618;10.642;2023-01-30T14:30:44;96326.09;;;16.12;22.32
64064;BME280;50314;50.618;10.642;2023-01-30T14:38:24;96321.91;;;16.10;22.23
64064;BME280;50314;50.618;10.642;2023-01-30T14:45:56;96344.16;;;16.09;22.20
64064;BME280;50314;50.618;10.642;2023-01-30T14:48:37;96347.13;;;16.06;22.54
64064;BME280;50314;50.618;10.642;2023-01-30T14:53:59;96334.66;;;16.06;22.30
64064;BME280;50314;50.618;10.642;2023-01-30T14:59:18;96334.84;;;16.05;22.40
64064;BME280;50314;50.618;10.642;2023-01-30T15:04:29;96333.84;;;16.06;22.41
64064;BME280;50314;50.618;10.642;2023-01-30T15:06:58;96332.00;;;16.06;22.43
64064;BME280;50314;50.618;10.642;2023-01-30T15:09:26;96336.31;;;16.07;22.38